Weather at Cadjehoun Airport

Public forecast

Using degrees Celsius for public forecast. Weather courtesy of forecast.io.

Current aviation weather report (METAR) for Cadjehoun Airport

Retrieved 2020/11/28 07:00 UTC (14 minutes ago):

DBBB 280700Z VRB02KT 9000 FEW009 FEW022CB 26/25 Q1012 NOSIG

Aviation forecast (TAF) for Cadjehoun Airport

Retrieved 2020/11/28 06:00 UTC (1 hour ago):

TAF DBBB 280500Z 2806/2912 VRB02KT 9999 SCT012 PROB30 2806/2812 4000 TSRA BKN010 FEW023CB BECMG 2810/2812 22010KT